Time,TemperatureF,DewpointF,PressureIn,WindDirection,WindDirectionDegrees,WindSpeedMPH,WindSpeedGustMPH,Humidity,HourlyPrecipIn,Conditions,Clouds,dailyrainin,SoftwareType,DateUTC
2013-01-21 00:30:00,32.1,30.0,30.13,West,267,0.0,0.0,92,0.00,,---,0.00,VWS V14.01,2013-01-21 05:30:00,
2013-01-21 01:30:00,34.3,32.0,30.15,West,267,0.0,0.0,91,0.00,,---,0.01,VWS V14.01,2013-01-21 06:30:00,
2013-01-21 01:35:00,32.1,30.0,30.13,West,267,0.0,0.0,92,0.00,,---,0.00,VWS V14.01,2013-01-21 06:35:00,
2013-01-21 01:40:00,32.0,29.9,30.13,West,267,0.0,0.0,92,0.00,,---,0.00,VWS V14.01,2013-01-21 06:40:00,
2013-01-21 01:45:00,32.0,29.9,30.13,West,267,0.0,0.0,92,0.00,,---,0.00,VWS V14.01,2013-01-21 06:45:00,
2013-01-21 01:50:00,31.9,29.8,30.13,West,267,0.0,0.0,92,0.00,,---,0.00,VWS V14.01,2013-01-21 06:50:00,
2013-01-21 01:55:00,31.8,29.8,30.13,West,267,0.0,0.0,92,0.00,,---,0.00,VWS V14.01,2013-01-21 06:55:00,
2013-01-21 02:30:00,31.0,29.2,30.12,West,267,0.0,0.0,93,0.00,,---,0.00,VWS V14.01,2013-01-21 07:30:00,
2013-01-21 03:33:00,31.0,29.2,30.12,West,267,0.0,0.0,93,0.00,,---,0.00,VWS V14.01,2013-01-21 08:33:00,
2013-01-21 03:38:00,30.8,29.0,30.12,West,267,0.0,0.0,93,0.00,,---,0.00,VWS V14.01,2013-01-21 08:38:00,
2013-01-21 03:43:00,30.7,28.9,30.12,West,267,0.0,0.0,93,0.00,,---,0.00,VWS V14.01,2013-01-21 08:43:00,
2013-01-21 03:48:00,30.7,28.9,30.12,West,267,0.0,0.0,93,0.00,,---,0.00,VWS V14.01,2013-01-21 08:48:00,
2013-01-21 03:53:00,30.7,28.9,30.12,West,267,0.0,0.0,93,0.00,,---,0.00,VWS V14.01,2013-01-21 08:53:00,
2013-01-21 03:58:00,30.5,28.7,30.12,West,267,0.0,0.0,93,0.00,,---,0.00,VWS V14.01,2013-01-21 08:58:00,
2013-01-21 04:00:00,29.6,27.8,30.10,West,267,0.0,0.0,93,0.00,,---,0.00,VWS V14.01,2013-01-21 09:00:00,
2013-01-21 04:35:00,30.4,28.6,30.11,West,267,0.0,0.0,93,0.00,,---,0.00,VWS V14.01,2013-01-21 09:35:00,
2013-01-21 04:40:00,30.1,28.3,30.11,West,267,0.0,0.0,93,0.00,,---,0.00,VWS V14.01,2013-01-21 09:40:00,
2013-01-21 04:45:00,29.9,28.1,30.10,West,267,0.0,0.0,93,0.00,,---,0.00,VWS V14.01,2013-01-21 09:45:00,
2013-01-21 04:50:00,29.8,28.0,30.10,West,267,0.0,0.0,93,0.00,,---,0.00,VWS V14.01,2013-01-21 09:50:00,
2013-01-21 04:55:00,29.7,27.9,30.10,West,267,0.0,0.0,93,0.00,,---,0.00,VWS V14.01,2013-01-21 09:55:00,
2013-01-21 05:00:00,29.6,27.8,30.10,West,267,0.0,0.0,93,0.00,,---,0.00,VWS V14.01,2013-01-21 10:00:00,
2013-01-21 06:00:00,29.4,27.9,30.11,West,267,0.0,0.0,94,0.00,,---,0.00,VWS V14.01,2013-01-21 11:00:00,
2013-01-21 06:30:00,29.2,27.7,30.12,West,267,0.0,0.0,94,0.00,,---,0.00,VWS V14.01,2013-01-21 11:30:00,
2013-01-21 06:38:00,29.5,27.7,30.11,West,267,0.0,0.0,93,0.00,,---,0.00,VWS V14.01,2013-01-21 11:38:00,
2013-01-21 06:43:00,29.6,28.1,30.11,West,267,0.0,0.0,94,0.00,,---,0.00,VWS V14.01,2013-01-21 11:43:00,
2013-01-21 06:48:00,29.5,28.0,30.11,West,267,0.0,0.0,94,0.00,,---,0.00,VWS V14.01,2013-01-21 11:48:00,
2013-01-21 06:53:00,29.5,28.0,30.11,West,267,0.0,0.0,94,0.00,,---,0.00,VWS V14.01,2013-01-21 11:53:00,
2013-01-21 06:58:00,29.6,28.1,30.11,West,267,0.0,0.0,94,0.00,,---,0.00,VWS V14.01,2013-01-21 11:58:00,
2013-01-21 07:00:00,29.4,27.9,30.12,West,267,0.0,1.0,94,0.00,,---,0.00,VWS V14.01,2013-01-21 12:00:00,
2013-01-21 07:03:00,29.4,27.9,30.11,West,267,0.0,0.0,94,0.00,,---,0.00,VWS V14.01,2013-01-21 12:03:00,
2013-01-21 07:18:00,29.3,27.8,30.11,West,267,0.0,0.0,94,0.00,,---,0.00,VWS V14.01,2013-01-21 12:18:00,
2013-01-21 07:23:00,29.4,27.9,30.12,West,267,0.0,0.0,94,0.00,,---,0.00,VWS V14.01,2013-01-21 12:23:00,
2013-01-21 07:28:00,29.4,27.9,30.12,West,267,0.0,0.0,94,0.00,,---,0.00,VWS V14.01,2013-01-21 12:28:00,
2013-01-21 07:30:00,32.7,31.2,30.13,West,267,0.0,1.0,94,0.00,,---,0.00,VWS V14.01,2013-01-21 12:30:00,
2013-01-21 07:33:00,29.2,27.7,30.12,West,267,0.0,0.0,94,0.00,,---,0.00,VWS V14.01,2013-01-21 12:33:00,
2013-01-21 07:38:00,29.1,27.3,30.12,West,267,0.0,0.0,93,0.00,,---,0.00,VWS V14.01,2013-01-21 12:38:00,
2013-01-21 07:43:00,29.0,27.5,30.12,West,267,0.0,0.0,94,0.00,,---,0.00,VWS V14.01,2013-01-21 12:43:00,
2013-01-21 07:48:00,29.0,27.5,30.12,West,267,0.0,0.0,94,0.00,,---,0.00,VWS V14.01,2013-01-21 12:48:00,
2013-01-21 07:53:00,29.0,27.5,30.12,West,267,0.0,0.0,94,0.00,,---,0.00,VWS V14.01,2013-01-21 12:53:00,
2013-01-21 07:58:00,29.2,27.7,30.12,West,267,0.0,1.0,94,0.00,,---,0.00,VWS V14.01,2013-01-21 12:58:00,
2013-01-21 08:00:00,37.7,36.1,30.14,West,267,0.0,1.0,94,0.00,,---,0.00,VWS V14.01,2013-01-21 13:00:00,
2013-01-21 08:03:00,29.4,27.9,30.12,West,267,0.0,1.0,94,0.00,,---,0.00,VWS V14.01,2013-01-21 13:03:00,
2013-01-21 08:30:00,29.5,28.0,30.12,West,267,0.0,1.0,94,0.00,,---,0.00,VWS V14.01,2013-01-21 13:30:00,
2013-01-21 08:35:00,33.4,32.1,30.14,West,267,0.0,0.0,95,0.00,,---,0.00,VWS V14.01,2013-01-21 13:35:00,
2013-01-21 08:40:00,35.1,33.8,30.14,West,267,0.0,0.0,95,0.00,,---,0.00,VWS V14.01,2013-01-21 13:40:00,
2013-01-21 08:45:00,35.8,34.5,30.14,West,267,0.0,0.0,95,0.00,,---,0.00,VWS V14.01,2013-01-21 13:45:00,
2013-01-21 08:50:00,36.3,35.0,30.14,West,267,0.0,0.0,95,0.00,,---,0.00,VWS V14.01,2013-01-21 13:50:00,
2013-01-21 08:55:00,37.2,35.9,30.14,West,267,0.0,0.0,95,0.00,,---,0.00,VWS V14.01,2013-01-21 13:55:00,
2013-01-21 09:00:00,37.5,35.9,30.14,West,267,0.0,0.0,94,0.00,,---,0.00,VWS V14.01,2013-01-21 14:00:00,
2013-01-21 09:05:00,37.8,36.0,30.14,West,267,1.0,2.0,93,0.00,,---,0.00,VWS V14.01,2013-01-21 14:05:00,
2013-01-21 09:10:00,38.4,35.7,30.14,West,267,0.0,2.0,90,0.00,,---,0.00,VWS V14.01,2013-01-21 14:10:00,
2013-01-21 09:15:00,39.1,35.8,30.14,West,267,0.0,2.0,88,0.00,,---,0.00,VWS V14.01,2013-01-21 14:15:00,
2013-01-21 09:20:00,39.8,36.0,30.14,West,267,0.0,2.0,86,0.00,,---,0.00,VWS V14.01,2013-01-21 14:20:00,
2013-01-21 09:25:00,40.4,36.0,30.14,West,267,1.0,2.0,84,0.00,,---,0.00,VWS V14.01,2013-01-21 14:25:00,
2013-01-21 09:30:00,40.9,35.8,30.14,West,267,0.0,2.0,82,0.00,,---,0.00,VWS V14.01,2013-01-21 14:30:00,
2013-01-21 09:35:00,41.4,35.7,30.13,West,267,1.0,1.0,80,0.00,,---,0.00,VWS V14.01,2013-01-21 14:35:00,
2013-01-21 09:43:00,42.0,36.0,30.14,West,267,0.0,1.0,79,0.00,,---,0.00,VWS V14.01,2013-01-21 14:43:00,
2013-01-21 09:48:00,43.1,36.4,30.14,West,267,1.0,2.0,77,0.00,,---,0.00,VWS V14.01,2013-01-21 14:48:00,
2013-01-21 09:53:00,43.7,37.0,30.13,West,267,2.0,3.0,77,0.00,,---,0.00,VWS V14.01,2013-01-21 14:53:00,
2013-01-21 09:58:00,44.7,37.3,30.13,West,267,1.0,3.0,75,0.00,,---,0.00,VWS V14.01,2013-01-21 14:58:00,
2013-01-21 10:00:00,52.3,36.6,30.14,West,264,4.0,13.0,55,0.00,,---,0.00,VWS V14.01,2013-01-21 15:00:00,
2013-01-21 10:03:00,45.4,36.9,30.14,West,267,2.0,4.0,72,0.00,,---,0.00,VWS V14.01,2013-01-21 15:03:00,
2013-01-21 10:08:00,46.3,37.4,30.14,West,267,3.0,5.0,71,0.00,,---,0.00,VWS V14.01,2013-01-21 15:08:00,
2013-01-21 10:11:00,47.4,37.4,30.14,West,267,2.0,5.0,68,0.00,,---,0.00,VWS V14.01,2013-01-21 15:11:00,
2013-01-21 10:13:00,47.1,37.5,30.14,West,267,3.0,5.0,69,0.00,,---,0.00,VWS V14.01,2013-01-21 15:13:00,
2013-01-21 10:30:00,55.5,37.2,30.13,West,276,4.0,13.0,50,0.00,,---,0.00,VWS V14.01,2013-01-21 15:30:00,
2013-01-21 10:41:00,47.4,37.4,30.14,West,267,2.0,5.0,68,0.00,,---,0.00,VWS V14.01,2013-01-21 15:41:00,
2013-01-21 10:46:00,50.7,36.9,30.15,West,268,9.0,13.0,59,0.00,,---,0.00,VWS V14.01,2013-01-21 15:46:00,
2013-01-21 10:51:00,51.2,37.0,30.15,West,268,4.0,13.0,58,0.00,,---,0.00,VWS V14.01,2013-01-21 15:51:00,
2013-01-21 10:56:00,51.9,37.2,30.14,West,267,7.0,13.0,57,0.00,,---,0.00,VWS V14.01,2013-01-21 15:56:00,
2013-01-21 11:00:00,55.8,34.8,30.12,West,272,7.0,16.0,45,0.00,,---,0.00,VWS V14.01,2013-01-21 16:00:00,
2013-01-21 11:01:00,52.1,37.3,30.14,West,267,4.0,13.0,57,0.00,,---,0.00,VWS V14.01,2013-01-21 16:01:00,
2013-01-21 11:06:00,52.6,36.5,30.14,West,263,4.0,11.0,54,0.00,,---,0.00,VWS V14.01,2013-01-21 16:06:00,
2013-01-21 11:11:00,53.3,36.6,30.14,West,261,5.0,13.0,53,0.00,,---,0.00,VWS V14.01,2013-01-21 16:11:00,
2013-01-21 11:25:00,54.2,37.5,30.14,WSW,254,3.0,13.0,53,0.00,,---,0.00,VWS V14.01,2013-01-21 16:25:00,
2013-01-21 11:30:00,54.9,37.1,30.13,WSW,258,2.0,13.0,51,0.00,,---,0.00,VWS V14.01,2013-01-21 16:30:00,
2013-01-21 11:35:00,55.8,36.9,30.13,West,275,1.0,5.0,49,0.00,,---,0.00,VWS V14.01,2013-01-21 16:35:00,
2013-01-21 11:40:00,57.0,36.4,30.13,West,260,5.0,10.0,46,0.00,,---,0.00,VWS V14.01,2013-01-21 16:40:00,
2013-01-21 11:45:00,57.4,36.2,30.13,West,272,1.0,11.0,45,0.00,,---,0.00,VWS V14.01,2013-01-21 16:45:00,
2013-01-21 11:50:00,57.4,35.1,30.13,West,273,10.0,12.0,43,0.00,,---,0.00,VWS V14.01,2013-01-21 16:50:00,
2013-01-21 11:55:00,56.7,34.5,30.12,West,278,10.0,16.0,43,0.00,,---,0.00,VWS V14.01,2013-01-21 16:55:00,
2013-01-21 12:00:00,56.1,34.5,30.12,West,260,10.0,16.0,44,0.00,,---,0.00,VWS V14.01,2013-01-21 17:00:00,
2013-01-21 12:05:00,56.0,34.4,30.12,West,280,0.0,7.0,44,0.00,,---,0.00,VWS V14.01,2013-01-21 17:05:00,
2013-01-21 12:10:00,56.7,35.0,30.12,West,272,13.0,15.0,44,0.00,,---,0.00,VWS V14.01,2013-01-21 17:10:00,
2013-01-21 12:15:00,56.2,35.2,30.11,West,271,10.0,15.0,45,0.00,,---,0.00,VWS V14.01,2013-01-21 17:15:00,
2013-01-21 12:20:00,56.2,35.2,30.11,West,267,7.0,15.0,45,0.00,,---,0.00,VWS V14.01,2013-01-21 17:20:00,
2013-01-21 12:25:00,56.7,35.6,30.11,West,273,8.0,15.0,45,0.00,,---,0.00,VWS V14.01,2013-01-21 17:25:00,
2013-01-21 12:30:00,56.3,34.7,30.11,West,269,6.0,22.0,44,0.00,,---,0.00,VWS V14.01,2013-01-21 17:30:00,
2013-01-21 12:35:00,56.8,35.7,30.11,West,268,3.0,4.0,45,0.00,,---,0.00,VWS V14.01,2013-01-21 17:35:00,
2013-01-21 12:40:00,57.6,36.4,30.11,West,265,14.0,14.0,45,0.00,,---,0.00,VWS V14.01,2013-01-21 17:40:00,
2013-01-21 12:45:00,56.8,35.1,30.10,West,267,5.0,17.0,44,0.00,,---,0.00,VWS V14.01,2013-01-21 17:45:00,
2013-01-21 12:50:00,56.6,35.5,30.10,West,264,7.0,17.0,45,0.00,,---,0.00,VWS V14.01,2013-01-21 17:50:00,
2013-01-21 12:55:00,56.4,35.9,30.10,WSW,240,4.0,17.0,46,0.00,,---,0.00,VWS V14.01,2013-01-21 17:55:00,
2013-01-21 13:00:00,56.4,35.9,30.09,West,267,13.0,17.0,46,0.00,,---,0.00,VWS V14.01,2013-01-21 18:00:00,
2013-01-21 13:05:00,56.9,35.8,30.09,West,263,9.0,13.0,45,0.00,,---,0.00,VWS V14.01,2013-01-21 18:05:00,
2013-01-21 13:10:00,56.9,35.8,30.09,West,261,5.0,14.0,45,0.00,,---,0.00,VWS V14.01,2013-01-21 18:10:00,
2013-01-21 13:15:00,57.0,35.9,30.09,WNW,286,13.0,16.0,45,0.00,,---,0.00,VWS V14.01,2013-01-21 18:15:00,
2013-01-21 13:20:00,57.0,35.9,30.09,West,279,9.0,17.0,45,0.00,,---,0.00,VWS V14.01,2013-01-21 18:20:00,
2013-01-21 13:51:00,57.0,35.3,30.09,West,277,10.0,17.0,44,0.00,,---,0.00,VWS V14.01,2013-01-21 18:51:00,
2013-01-21 13:56:00,56.9,34.1,30.08,West,275,1.0,17.0,42,0.00,,---,0.00,VWS V14.01,2013-01-21 18:56:00,
2013-01-21 14:00:00,53.3,32.0,30.10,West,275,5.0,24.0,44,0.00,,---,0.00,VWS V14.01,2013-01-21 19:00:00,
2013-01-21 14:01:00,56.8,33.4,30.08,West,278,8.0,17.0,41,0.00,,---,0.00,VWS V14.01,2013-01-21 19:01:00,
2013-01-21 14:06:00,56.1,33.3,30.09,West,272,7.0,12.0,42,0.00,,---,0.00,VWS V14.01,2013-01-21 19:06:00,
2013-01-21 14:11:00,56.5,33.7,30.09,West,261,6.0,12.0,42,0.00,,---,0.00,VWS V14.01,2013-01-21 19:11:00,
2013-01-21 14:16:00,56.8,34.0,30.09,North,350,3.0,15.0,42,0.00,,---,0.00,VWS V14.01,2013-01-21 19:16:00,
2013-01-21 14:53:00,53.8,32.4,30.10,West,263,10.0,23.0,44,0.00,,---,0.00,VWS V14.01,2013-01-21 19:53:00,
2013-01-21 14:58:00,53.7,32.3,30.10,West,259,8.0,23.0,44,0.00,,---,0.00,VWS V14.01,2013-01-21 19:58:00,
2013-01-21 15:03:00,53.3,32.0,30.10,West,268,12.0,24.0,44,0.00,,---,0.00,VWS V14.01,2013-01-21 20:03:00,
2013-01-21 15:08:00,53.3,32.0,30.10,West,266,10.0,18.0,44,0.00,,---,0.00,VWS V14.01,2013-01-21 20:08:00,
2013-01-21 15:13:00,53.4,32.0,30.11,West,275,3.0,20.0,44,0.00,,---,0.00,VWS V14.01,2013-01-21 20:13:00,
2013-01-21 15:18:00,53.4,31.5,30.11,WNW,287,9.0,20.0,43,0.00,,---,0.00,VWS V14.01,2013-01-21 20:18:00,
2013-01-21 16:00:00,50.2,28.0,30.12,West,265,4.0,20.0,42,0.00,,---,0.00,VWS V14.01,2013-01-21 21:00:00,
2013-01-21 16:46:00,53.5,31.6,30.11,West,270,6.0,20.0,43,0.00,,---,0.00,VWS V14.01,2013-01-21 21:46:00,
2013-01-21 16:51:00,50.1,27.9,30.12,West,268,8.0,20.0,42,0.00,,---,0.00,VWS V14.01,2013-01-21 21:51:00,
2013-01-21 16:56:00,50.1,27.9,30.12,West,268,5.0,20.0,42,0.00,,---,0.00,VWS V14.01,2013-01-21 21:56:00,
2013-01-21 17:01:00,50.2,28.0,30.12,West,273,3.0,20.0,42,0.00,,---,0.00,VWS V14.01,2013-01-21 22:01:00,
2013-01-21 17:06:00,50.2,28.0,30.12,West,267,2.0,9.0,42,0.00,,---,0.00,VWS V14.01,2013-01-21 22:06:00,
2013-01-21 17:11:00,50.1,28.5,30.12,West,268,1.0,9.0,43,0.00,,---,0.00,VWS V14.01,2013-01-21 22:11:00,
2013-01-21 17:16:00,49.9,27.1,30.12,WSW,248,17.0,19.0,41,0.00,,---,0.00,VWS V14.01,2013-01-21 22:16:00,
2013-01-21 18:00:00,45.1,25.6,30.15,West,267,4.0,19.0,46,0.00,,---,0.00,VWS V14.01,2013-01-21 23:00:00,
2013-01-21 19:00:00,45.2,25.7,30.15,West,267,4.0,19.0,46,0.00,,---,0.00,VWS V14.01,2013-01-22 00:00:00,
2013-01-21 19:05:00,45.0,26.0,30.15,West,273,5.0,6.0,47,0.00,,---,0.00,VWS V14.01,2013-01-22 00:05:00,
2013-01-21 19:10:00,45.0,25.0,30.15,West,268,5.0,12.0,45,0.00,,---,0.00,VWS V14.01,2013-01-22 00:10:00,
2013-01-21 19:15:00,44.9,24.9,30.15,West,270,4.0,12.0,45,0.00,,---,0.00,VWS V14.01,2013-01-22 00:15:00,
2013-01-21 19:20:00,44.8,24.8,30.16,West,264,5.0,12.0,45,0.00,,---,0.00,VWS V14.01,2013-01-22 00:20:00,
2013-01-21 19:25:00,44.5,24.5,30.15,West,263,4.0,12.0,45,0.00,,---,0.00,VWS V14.01,2013-01-22 00:25:00,
2013-01-21 19:30:00,42.3,22.5,30.17,West,269,1.0,10.0,45,0.00,,---,0.00,VWS V14.01,2013-01-22 00:30:00,
2013-01-21 19:47:00,43.8,23.9,30.16,WSW,250,3.0,12.0,45,0.00,,---,0.00,VWS V14.01,2013-01-22 00:47:00,
2013-01-21 19:52:00,43.7,23.8,30.16,West,259,3.0,12.0,45,0.00,,---,0.00,VWS V14.01,2013-01-22 00:52:00,
2013-01-21 19:57:00,43.5,23.6,30.16,West,263,3.0,12.0,45,0.00,,---,0.00,VWS V14.01,2013-01-22 00:57:00,
2013-01-21 20:00:00,41.4,22.2,30.17,West,273,5.0,14.0,46,0.00,,---,0.00,VWS V14.01,2013-01-22 01:00:00,
2013-01-21 20:02:00,43.4,23.5,30.16,West,263,7.0,12.0,45,0.00,,---,0.00,VWS V14.01,2013-01-22 01:02:00,
2013-01-21 20:07:00,43.2,23.3,30.16,West,269,4.0,9.0,45,0.00,,---,0.00,VWS V14.01,2013-01-22 01:07:00,
2013-01-21 20:12:00,43.0,23.1,30.16,West,264,5.0,10.0,45,0.00,,---,0.00,VWS V14.01,2013-01-22 01:12:00,
2013-01-21 20:17:00,42.8,23.0,30.16,West,266,5.0,10.0,45,0.00,,---,0.00,VWS V14.01,2013-01-22 01:17:00,
2013-01-21 20:22:00,42.8,23.0,30.16,West,272,1.0,10.0,45,0.00,,---,0.00,VWS V14.01,2013-01-22 01:22:00,
2013-01-21 20:27:00,42.6,22.8,30.16,West,269,4.0,10.0,45,0.00,,---,0.00,VWS V14.01,2013-01-22 01:27:00,
2013-01-21 20:30:00,40.6,21.5,30.18,West,264,6.0,12.0,46,0.00,,---,0.00,VWS V14.01,2013-01-22 01:30:00,
2013-01-21 20:32:00,42.4,22.6,30.17,West,269,4.0,10.0,45,0.00,,---,0.00,VWS V14.01,2013-01-22 01:32:00,
2013-01-21 20:37:00,42.2,22.4,30.17,West,269,5.0,10.0,45,0.00,,---,0.00,VWS V14.01,2013-01-22 01:37:00,
2013-01-21 20:42:00,42.0,22.2,30.17,West,269,3.0,10.0,45,0.00,,---,0.00,VWS V14.01,2013-01-22 01:42:00,
2013-01-21 20:47:00,41.9,22.1,30.17,West,266,4.0,10.0,45,0.00,,---,0.00,VWS V14.01,2013-01-22 01:47:00,
2013-01-21 20:52:00,41.7,21.9,30.17,West,268,4.0,10.0,45,0.00,,---,0.00,VWS V14.01,2013-01-22 01:52:00,
2013-01-21 20:57:00,41.6,21.9,30.17,West,269,4.0,14.0,45,0.00,,---,0.00,VWS V14.01,2013-01-22 01:57:00,
2013-01-21 21:00:00,39.7,21.1,30.18,West,267,2.0,13.0,47,0.00,,---,0.00,VWS V14.01,2013-01-22 02:00:00,
2013-01-21 21:02:00,41.5,22.3,30.17,West,271,6.0,14.0,46,0.00,,---,0.00,VWS V14.01,2013-01-22 02:02:00,
2013-01-21 21:07:00,41.2,22.0,30.17,West,272,3.0,5.0,46,0.00,,---,0.00,VWS V14.01,2013-01-22 02:07:00,
2013-01-21 21:12:00,41.1,21.9,30.17,West,269,4.0,9.0,46,0.00,,---,0.00,VWS V14.01,2013-01-22 02:12:00,
2013-01-21 21:17:00,41.0,21.8,30.17,West,269,5.0,9.0,46,0.00,,---,0.00,VWS V14.01,2013-01-22 02:17:00,
2013-01-21 21:22:00,40.8,21.6,30.17,WSW,258,4.0,12.0,46,0.00,,---,0.00,VWS V14.01,2013-01-22 02:22:00,
2013-01-21 21:27:00,40.8,21.6,30.17,West,265,5.0,12.0,46,0.00,,---,0.00,VWS V14.01,2013-01-22 02:27:00,
2013-01-21 21:32:00,40.7,21.5,30.18,West,267,7.0,12.0,46,0.00,,---,0.00,VWS V14.01,2013-01-22 02:32:00,
2013-01-21 21:37:00,40.6,21.5,30.18,West,265,2.0,7.0,46,0.00,,---,0.00,VWS V14.01,2013-01-22 02:37:00,
2013-01-21 21:42:00,40.4,21.3,30.18,West,265,5.0,7.0,46,0.00,,---,0.00,VWS V14.01,2013-01-22 02:42:00,
2013-01-21 21:47:00,40.2,21.1,30.18,West,267,6.0,10.0,46,0.00,,---,0.00,VWS V14.01,2013-01-22 02:47:00,
2013-01-21 21:52:00,40.1,21.0,30.18,West,264,7.0,13.0,46,0.00,,---,0.00,VWS V14.01,2013-01-22 02:52:00,
2013-01-21 21:57:00,39.9,21.3,30.18,West,267,9.0,13.0,47,0.00,,---,0.00,VWS V14.01,2013-01-22 02:57:00,
2013-01-21 22:02:00,39.8,21.2,30.18,West,267,5.0,13.0,47,0.00,,---,0.00,VWS V14.01,2013-01-22 03:02:00,
2013-01-21 22:07:00,39.6,20.5,30.18,West,273,6.0,10.0,46,0.00,,---,0.00,VWS V14.01,2013-01-22 03:07:00,
2013-01-21 22:12:00,39.5,21.0,30.18,West,265,6.0,10.0,47,0.00,,---,0.00,VWS V14.01,2013-01-22 03:12:00,